Terminal Aerodrome Forecast
Issued by NWS Jackson, MS

Home | Current Version | Previous Version | Text Only | Print | Product List | Glossary On
Versions: 1 2 3 4 5 6 7 8 9 10 11 12
000
FTUS44 KMEG 162330
TAFTUP
TAF
KTUP 162330Z 1700/1724 15005KT P6SM BKN120
     FM170800 16003KT P6SM VCSH FEW040 BKN070
     FM171000 12003KT 6SM -SHRA BR FEW015 BKN025
     FM171300 11005KT 5SM SHRA BR OVC008
     FM171700 15006KT P6SM OVC015=

USA.gov is the U.S. government's official web portal to all federal, state and local government web resources and services.